createdAt,value
2024-01-27T00:00:57.778Z,100.00
2024-01-27T00:03:26.869Z,100.00
2024-01-27T00:05:54.607Z,100.00
2024-01-27T00:08:22.846Z,100.00
2024-01-27T00:10:50.503Z,100.00
2024-01-27T00:13:18.035Z,100.00
2024-01-27T00:15:45.576Z,100.00
2024-01-27T00:18:13.313Z,100.00
2024-01-27T00:20:42.447Z,100.00
2024-01-27T00:23:10.068Z,100.00
2024-01-27T00:25:37.759Z,100.00
2024-01-27T00:28:05.802Z,100.00
2024-01-27T00:30:33.552Z,100.00
2024-01-27T00:33:01.236Z,100.00
2024-01-27T00:35:28.905Z,100.00
2024-01-27T00:37:58.109Z,100.00
2024-01-27T00:40:25.503Z,100.00
2024-01-27T00:42:53.341Z,100.00
2024-01-27T00:45:21.349Z,100.00
2024-01-27T00:47:49.303Z,100.00
2024-01-27T00:50:17.001Z,100.00
2024-01-27T00:52:44.559Z,100.00
2024-01-27T00:55:13.648Z,100.00
2024-01-27T00:57:41.348Z,100.00
2024-01-27T01:00:10.775Z,100.00
2024-01-27T01:02:38.874Z,100.00
2024-01-27T01:05:06.832Z,100.00
2024-01-27T01:07:34.467Z,100.00
2024-01-27T01:10:02.624Z,100.00
2024-01-27T01:12:31.773Z,100.00
2024-01-27T01:14:59.592Z,100.00
2024-01-27T01:17:27.241Z,100.00
2024-01-27T01:19:55.234Z,100.00
2024-01-27T01:22:22.839Z,100.00
2024-01-27T01:24:50.506Z,100.00
2024-01-27T01:27:20.216Z,100.00
2024-01-27T01:29:49.519Z,100.00
2024-01-27T01:32:17.171Z,100.00
2024-01-27T01:34:47.044Z,100.00
2024-01-27T01:37:14.802Z,100.00
2024-01-27T01:39:42.542Z,100.00
2024-01-27T01:42:10.167Z,100.00
2024-01-27T01:44:37.855Z,100.00
2024-01-27T01:47:08.886Z,100.00
2024-01-27T01:49:37.309Z,100.00
2024-01-27T01:52:06.045Z,100.00
2024-01-27T01:54:33.969Z,100.00
2024-01-27T01:57:02.012Z,100.00
2024-01-27T01:59:29.784Z,100.00
2024-01-27T02:01:57.532Z,100.00
2024-01-27T02:04:26.568Z,100.00
2024-01-27T02:06:54.232Z,100.00
2024-01-27T02:09:21.880Z,100.00
2024-01-27T02:11:49.664Z,100.00
2024-01-27T02:14:18.819Z,100.00
2024-01-27T02:16:46.392Z,100.00
2024-01-27T02:19:14.163Z,100.00
2024-01-27T02:21:43.316Z,100.00
2024-01-27T02:24:12.369Z,100.00
2024-01-27T02:26:39.965Z,100.00
2024-01-27T02:29:07.532Z,100.00
2024-01-27T02:31:35.325Z,100.00
2024-01-27T02:34:03.050Z,100.00
2024-01-27T02:36:30.828Z,100.00
2024-01-27T02:38:58.470Z,100.00
2024-01-27T02:41:28.053Z,100.00
2024-01-27T02:43:55.759Z,100.00
2024-01-27T02:46:23.412Z,100.00
2024-01-27T02:48:51.237Z,100.00
2024-01-27T02:51:20.722Z,100.00
2024-01-27T02:53:48.512Z,100.00
2024-01-27T02:56:17.800Z,100.00
2024-01-27T02:58:46.747Z,100.00
2024-01-27T03:01:14.450Z,100.00
2024-01-27T03:03:42.192Z,100.00
2024-01-27T03:06:09.927Z,100.00
2024-01-27T03:08:37.628Z,100.00
2024-01-27T03:11:05.542Z,100.00
2024-01-27T03:13:34.251Z,100.00
2024-01-27T03:16:03.406Z,100.00
2024-01-27T03:18:31.415Z,100.00
2024-01-27T03:20:59.351Z,100.00
2024-01-27T03:23:26.953Z,100.00
2024-01-27T03:25:54.928Z,100.00
2024-01-27T03:28:22.911Z,100.00
2024-01-27T03:30:50.566Z,100.00
2024-01-27T03:33:19.858Z,100.00
2024-01-27T03:35:47.645Z,100.00
2024-01-27T03:38:15.319Z,100.00
2024-01-27T03:40:42.845Z,100.00
2024-01-27T03:43:10.411Z,100.00
2024-01-27T03:45:38.111Z,100.00
2024-01-27T03:48:06.844Z,100.00
2024-01-27T03:50:35.868Z,100.00
2024-01-27T03:53:03.519Z,100.00
2024-01-27T03:55:32.503Z,100.00
2024-01-27T03:58:00.171Z,100.00
2024-01-27T04:00:29.000Z,100.00
2024-01-27T04:02:56.666Z,100.00
2024-01-27T04:05:24.292Z,100.00
2024-01-27T04:07:53.290Z,100.00
2024-01-27T04:10:21.456Z,100.00
2024-01-27T04:12:49.064Z,100.00
2024-01-27T04:15:16.755Z,100.00
2024-01-27T04:17:44.390Z,100.00
2024-01-27T04:20:12.714Z,100.00
2024-01-27T04:22:40.664Z,100.00
2024-01-27T04:25:09.900Z,100.00
2024-01-27T04:27:45.750Z,100.00
2024-01-27T04:30:14.338Z,100.00
2024-01-27T04:32:42.308Z,100.00
2024-01-27T04:35:10.820Z,100.00
2024-01-27T04:37:38.745Z,100.00
2024-01-27T04:40:07.397Z,100.00
2024-01-27T04:42:39.006Z,100.00
2024-01-27T04:45:07.272Z,100.00
2024-01-27T04:47:35.197Z,100.00
2024-01-27T04:50:02.936Z,100.00
2024-01-27T04:52:31.925Z,100.00
2024-01-27T04:54:59.711Z,100.00
2024-01-27T04:57:27.300Z,100.00
2024-01-27T04:59:56.384Z,100.00
2024-01-27T05:02:23.966Z,100.00
2024-01-27T05:04:51.505Z,100.00
2024-01-27T05:07:19.285Z,100.00
2024-01-27T05:09:47.009Z,100.00
2024-01-27T05:12:14.643Z,100.00
2024-01-27T05:14:44.751Z,100.00
2024-01-27T05:17:13.756Z,100.00
2024-01-27T05:19:41.591Z,100.00
2024-01-27T05:22:09.161Z,100.00
2024-01-27T05:24:36.817Z,100.00
2024-01-27T05:27:05.167Z,100.00
2024-01-27T05:29:32.743Z,100.00
2024-01-27T05:32:00.319Z,100.00
2024-01-27T05:34:29.494Z,100.00
2024-01-27T05:36:57.271Z,100.00
2024-01-27T05:39:24.871Z,100.00
2024-01-27T05:41:52.500Z,100.00
2024-01-27T05:44:20.070Z,100.00
2024-01-27T05:46:48.146Z,100.00
2024-01-27T05:49:15.895Z,100.00
2024-01-27T05:51:45.037Z,100.00
2024-01-27T05:54:15.944Z,100.00
2024-01-27T05:56:43.754Z,100.00
2024-01-27T05:59:11.341Z,100.00
2024-01-27T06:01:41.199Z,100.00
2024-01-27T06:04:09.083Z,100.00
2024-01-27T06:06:39.577Z,100.00
2024-01-27T06:09:12.383Z,100.00
2024-01-27T06:11:40.208Z,100.00
2024-01-27T06:14:07.875Z,100.00
2024-01-27T06:16:36.664Z,100.00
2024-01-27T06:19:04.744Z,100.00
2024-01-27T06:21:32.956Z,100.00
2024-01-27T06:24:01.022Z,100.00
2024-01-27T06:26:30.040Z,100.00
2024-01-27T06:28:58.089Z,100.00
2024-01-27T06:31:25.657Z,100.00
2024-01-27T06:33:53.621Z,100.00
2024-01-27T06:36:24.181Z,100.00
2024-01-27T06:38:52.443Z,100.00
2024-01-27T06:41:20.028Z,100.00
2024-01-27T06:43:48.965Z,100.00
2024-01-27T06:46:16.648Z,100.00
2024-01-27T06:48:44.748Z,100.00
2024-01-27T06:51:13.052Z,100.00
2024-01-27T06:53:40.776Z,100.00
2024-01-27T06:56:08.999Z,100.00
2024-01-27T06:58:37.638Z,100.00
2024-01-27T07:01:08.500Z,100.00
2024-01-27T07:03:36.261Z,100.00
2024-01-27T07:06:04.637Z,100.00
2024-01-27T07:08:36.905Z,100.00
2024-01-27T07:11:06.203Z,100.00
2024-01-27T07:13:33.842Z,100.00
2024-01-27T07:16:01.553Z,100.00
2024-01-27T07:18:31.121Z,100.00
2024-01-27T07:21:00.928Z,100.00
2024-01-27T07:23:28.723Z,100.00
2024-01-27T07:25:56.313Z,100.00
2024-01-27T07:28:23.882Z,100.00
2024-01-27T07:30:51.445Z,100.00
2024-01-27T07:33:19.177Z,100.00
2024-01-27T07:35:48.308Z,100.00
2024-01-27T07:38:15.841Z,100.00
2024-01-27T07:40:43.591Z,100.00
2024-01-27T07:43:11.106Z,100.00
2024-01-27T07:45:38.859Z,100.00
2024-01-27T07:48:07.367Z,100.00
2024-01-27T07:50:35.088Z,100.00
2024-01-27T07:53:04.360Z,100.00
2024-01-27T07:55:32.023Z,100.00
2024-01-27T07:57:59.712Z,100.00
2024-01-27T08:00:28.041Z,100.00
2024-01-27T08:02:55.623Z,100.00
2024-01-27T08:05:23.236Z,100.00
2024-01-27T08:07:51.069Z,100.00
2024-01-27T08:10:20.085Z,100.00
2024-01-27T08:12:47.723Z,100.00
2024-01-27T08:15:15.864Z,100.00
2024-01-27T08:17:43.724Z,100.00
2024-01-27T08:20:12.034Z,100.00
2024-01-27T08:22:39.608Z,100.00
2024-01-27T08:25:08.085Z,100.00
2024-01-27T08:27:37.169Z,100.00
2024-01-27T08:30:06.879Z,100.00
2024-01-27T08:32:35.841Z,100.00
2024-01-27T08:35:03.978Z,100.00
2024-01-27T08:37:33.706Z,100.00
2024-01-27T08:40:01.428Z,100.00
2024-01-27T08:42:29.107Z,100.00
2024-01-27T08:44:58.187Z,100.00
2024-01-27T08:47:25.767Z,100.00
2024-01-27T08:49:53.415Z,100.00
2024-01-27T08:52:21.121Z,100.00
2024-01-27T08:54:48.710Z,100.00
2024-01-27T08:57:16.415Z,100.00
2024-01-27T08:59:44.193Z,100.00
2024-01-27T09:02:13.592Z,100.00
2024-01-27T09:04:41.785Z,100.00
2024-01-27T09:07:09.505Z,100.00
2024-01-27T09:09:39.414Z,100.00
2024-01-27T09:12:07.933Z,100.00
2024-01-27T09:14:35.701Z,100.00
2024-01-27T09:17:03.629Z,100.00
2024-01-27T09:19:32.911Z,100.00
2024-01-27T09:22:00.606Z,100.00
2024-01-27T09:24:28.687Z,100.00
2024-01-27T09:26:56.349Z,100.00
2024-01-27T09:29:24.100Z,100.00
2024-01-27T09:31:51.958Z,100.00
2024-01-27T09:34:19.764Z,100.00
2024-01-27T09:36:48.909Z,100.00
2024-01-27T09:39:16.580Z,100.00
2024-01-27T09:41:44.905Z,100.00
2024-01-27T09:44:14.772Z,100.00
2024-01-27T09:46:42.839Z,100.00
2024-01-27T09:49:14.275Z,100.00
2024-01-27T09:51:42.849Z,100.00
2024-01-27T09:54:12.157Z,100.00
2024-01-27T09:56:40.068Z,100.00
2024-01-27T09:59:10.294Z,100.00
2024-01-27T10:01:39.377Z,100.00
2024-01-27T10:04:09.339Z,100.00
2024-01-27T10:06:37.084Z,100.00
2024-01-27T10:09:05.054Z,100.00
2024-01-27T10:11:37.420Z,100.00
2024-01-27T10:14:05.005Z,100.00
2024-01-27T10:16:41.457Z,100.00
2024-01-27T10:19:14.889Z,100.00
2024-01-27T10:21:42.634Z,100.00
2024-01-27T10:24:10.317Z,100.00
2024-01-27T10:26:39.493Z,100.00
2024-01-27T10:29:07.524Z,98.96
2024-01-27T10:31:37.549Z,98.99
2024-01-27T10:34:06.313Z,96.23
2024-01-27T10:36:42.047Z,97.95
2024-01-27T10:39:21.632Z,95.64
2024-01-27T10:41:51.879Z,95.39
2024-01-27T10:44:20.840Z,93.32
2024-01-27T10:46:49.180Z,90.65
2024-01-27T10:49:19.114Z,86.45
2024-01-27T10:51:52.733Z,86.44
2024-01-27T10:54:26.587Z,85.02
2024-01-27T10:56:57.516Z,83.34
2024-01-27T10:59:28.201Z,82.90
2024-01-27T11:01:57.181Z,81.84
2024-01-27T11:04:27.097Z,80.41
2024-01-27T11:06:55.084Z,81.58
2024-01-27T11:09:23.162Z,78.38
2024-01-27T11:11:51.458Z,77.54
2024-01-27T11:14:20.616Z,76.51
2024-01-27T11:16:49.049Z,75.73
2024-01-27T11:19:18.783Z,75.18
2024-01-27T11:21:46.582Z,75.29
2024-01-27T11:24:16.172Z,73.75
2024-01-27T11:26:43.990Z,72.41
2024-01-27T11:29:20.617Z,71.10
2024-01-27T11:31:50.506Z,70.05
2024-01-27T11:34:21.814Z,69.44
2024-01-27T11:36:49.904Z,69.63
2024-01-27T11:39:27.756Z,70.09
2024-01-27T11:42:06.345Z,65.99
2024-01-27T11:44:35.670Z,66.61
2024-01-27T11:47:05.644Z,65.27
2024-01-27T11:49:34.793Z,63.60
2024-01-27T11:52:03.153Z,65.07
2024-01-27T11:54:30.843Z,62.44
2024-01-27T11:56:58.563Z,64.14
2024-01-27T11:59:26.247Z,64.13
2024-01-27T12:01:53.920Z,58.56
2024-01-27T12:04:23.616Z,59.06
2024-01-27T12:06:51.605Z,59.09
2024-01-27T12:09:19.529Z,61.21
2024-01-27T12:11:47.395Z,55.39
2024-01-27T12:14:14.967Z,56.61
2024-01-27T12:16:42.703Z,57.20
2024-01-27T12:19:12.178Z,57.01
2024-01-27T12:21:48.896Z,56.51
2024-01-27T12:24:21.955Z,59.34
2024-01-27T12:26:50.281Z,59.02
2024-01-27T12:29:20.759Z,56.59
2024-01-27T12:31:48.453Z,54.02
2024-01-27T12:34:18.043Z,53.50
2024-01-27T12:36:48.601Z,50.71
2024-01-27T12:39:16.456Z,49.28
2024-01-27T12:41:44.219Z,51.54
2024-01-27T12:44:12.189Z,49.60
2024-01-27T12:46:39.966Z,52.44
2024-01-27T12:49:09.182Z,50.10
2024-01-27T12:51:37.724Z,54.03
2024-01-27T12:54:07.975Z,54.63
2024-01-27T12:56:36.210Z,51.63
2024-01-27T12:59:03.953Z,52.28
2024-01-27T13:01:31.620Z,49.87
2024-01-27T13:03:59.310Z,48.27
2024-01-27T13:06:27.074Z,52.94
2024-01-27T13:08:55.533Z,50.37
2024-01-27T13:11:25.543Z,50.32
2024-01-27T13:13:53.249Z,50.95
2024-01-27T13:16:20.985Z,51.34
2024-01-27T13:18:48.898Z,52.26
2024-01-27T13:21:16.717Z,50.72
2024-01-27T13:23:44.504Z,49.84
2024-01-27T13:26:18.184Z,51.90
2024-01-27T13:28:50.298Z,47.68
2024-01-27T13:31:19.545Z,53.36
2024-01-27T13:33:47.550Z,48.29
2024-01-27T13:36:15.422Z,47.38
2024-01-27T13:38:43.127Z,46.11
2024-01-27T13:41:10.751Z,47.49
2024-01-27T13:43:38.382Z,46.15
2024-01-27T13:46:07.683Z,46.56
2024-01-27T13:48:35.733Z,47.54
2024-01-27T13:51:04.285Z,46.45
2024-01-27T13:53:39.232Z,48.11
2024-01-27T13:56:14.647Z,49.19
2024-01-27T13:58:42.880Z,48.52
2024-01-27T14:01:12.021Z,48.81
2024-01-27T14:03:40.255Z,48.64
2024-01-27T14:06:13.198Z,50.16
2024-01-27T14:08:41.235Z,49.33
2024-01-27T14:11:08.833Z,54.29
2024-01-27T14:13:36.439Z,50.61
2024-01-27T14:16:04.506Z,50.25
2024-01-27T14:18:34.408Z,50.01
2024-01-27T14:21:02.137Z,47.98
2024-01-27T14:23:29.955Z,47.31
2024-01-27T14:25:57.889Z,46.33
2024-01-27T14:28:26.082Z,45.55
2024-01-27T14:30:54.030Z,48.01
2024-01-27T14:33:22.343Z,47.09
2024-01-27T14:35:51.860Z,48.13
2024-01-27T14:38:19.441Z,48.64
2024-01-27T14:40:47.006Z,50.13
2024-01-27T14:43:14.988Z,50.27
2024-01-27T14:45:43.885Z,50.41
2024-01-27T14:48:11.955Z,53.43
2024-01-27T14:50:39.865Z,53.87
2024-01-27T14:53:08.920Z,54.02
2024-01-27T14:55:36.485Z,55.65
2024-01-27T14:58:05.201Z,51.31
2024-01-27T15:00:33.098Z,53.49
2024-01-27T15:03:03.102Z,48.47
2024-01-27T15:05:31.125Z,50.11
2024-01-27T15:07:58.892Z,51.52
2024-01-27T15:10:27.921Z,48.97
2024-01-27T15:12:55.818Z,49.80
2024-01-27T15:15:23.535Z,52.71
2024-01-27T15:17:51.333Z,50.69
2024-01-27T15:20:19.124Z,51.95
2024-01-27T15:22:46.865Z,50.35
2024-01-27T15:25:14.573Z,52.32
2024-01-27T15:27:44.612Z,56.82
2024-01-27T15:30:14.173Z,54.23
2024-01-27T15:32:41.860Z,53.46
2024-01-27T15:35:09.935Z,55.94
2024-01-27T15:37:39.503Z,55.04
2024-01-27T15:40:08.816Z,54.27
2024-01-27T15:42:37.376Z,55.09
2024-01-27T15:45:07.319Z,56.18
2024-01-27T15:47:35.023Z,56.79
2024-01-27T15:50:05.794Z,56.82
2024-01-27T15:52:33.798Z,62.16
2024-01-27T15:55:01.738Z,59.41
2024-01-27T15:57:29.440Z,61.71
2024-01-27T15:59:57.522Z,61.91
2024-01-27T16:02:26.662Z,62.77
2024-01-27T16:04:57.733Z,64.73
2024-01-27T16:07:25.421Z,65.67
2024-01-27T16:09:56.884Z,65.03
2024-01-27T16:12:24.651Z,66.95
2024-01-27T16:14:52.235Z,75.61
2024-01-27T16:17:19.794Z,68.97
2024-01-27T16:19:49.031Z,71.21
2024-01-27T16:22:23.811Z,70.14
2024-01-27T16:24:52.006Z,70.43
2024-01-27T16:27:28.815Z,71.01
2024-01-27T16:29:58.178Z,73.96
2024-01-27T16:32:26.145Z,79.39
2024-01-27T16:34:55.270Z,75.54
2024-01-27T16:37:22.912Z,75.06
2024-01-27T16:39:50.707Z,75.27
2024-01-27T16:42:18.358Z,75.00
2024-01-27T16:44:45.959Z,74.60
2024-01-27T16:47:13.513Z,76.06
2024-01-27T16:49:42.325Z,77.03
2024-01-27T16:52:11.247Z,77.24
2024-01-27T16:54:39.257Z,77.00
2024-01-27T16:57:07.272Z,78.02
2024-01-27T16:59:35.579Z,80.97
2024-01-27T17:02:03.356Z,79.86
2024-01-27T17:04:30.986Z,78.89
2024-01-27T17:06:58.649Z,82.33
2024-01-27T17:09:27.642Z,81.26
2024-01-27T17:11:55.014Z,81.98
2024-01-27T17:14:22.607Z,78.64
2024-01-27T17:16:50.490Z,79.11
2024-01-27T17:19:18.199Z,79.00
2024-01-27T17:21:45.888Z,78.20
2024-01-27T17:24:13.615Z,78.72
2024-01-27T17:26:42.660Z,80.78
2024-01-27T17:29:10.403Z,82.24
2024-01-27T17:31:38.058Z,83.10
2024-01-27T17:34:05.824Z,81.47
2024-01-27T17:36:33.617Z,82.26
2024-01-27T17:39:01.291Z,83.76
2024-01-27T17:41:28.964Z,82.58
2024-01-27T17:43:58.735Z,82.49
2024-01-27T17:46:26.331Z,83.31
2024-01-27T17:48:54.152Z,83.77
2024-01-27T17:51:22.001Z,85.01
2024-01-27T17:53:49.960Z,85.19
2024-01-27T17:56:23.930Z,85.96
2024-01-27T17:58:51.737Z,87.51
2024-01-27T18:01:20.868Z,89.50
2024-01-27T18:03:48.625Z,88.99
2024-01-27T18:06:16.715Z,89.54
2024-01-27T18:08:44.648Z,90.26
2024-01-27T18:11:12.264Z,91.24
2024-01-27T18:13:39.862Z,92.31
2024-01-27T18:16:09.416Z,93.15
2024-01-27T18:18:38.515Z,93.79
2024-01-27T18:21:06.254Z,94.08
2024-01-27T18:23:33.949Z,93.37
2024-01-27T18:26:01.574Z,93.00
2024-01-27T18:28:29.390Z,94.12
2024-01-27T18:30:57.178Z,93.64
2024-01-27T18:33:26.090Z,94.18
2024-01-27T18:35:57.678Z,94.45
2024-01-27T18:38:25.590Z,94.91
2024-01-27T18:40:53.281Z,95.44
2024-01-27T18:43:20.853Z,96.25
2024-01-27T18:45:48.609Z,98.17
2024-01-27T18:48:16.532Z,97.61
2024-01-27T18:50:44.212Z,98.04
2024-01-27T18:53:13.509Z,97.80
2024-01-27T18:55:41.973Z,97.98
2024-01-27T18:58:10.296Z,98.14
2024-01-27T19:00:38.624Z,98.14
2024-01-27T19:03:10.574Z,98.01
2024-01-27T19:05:38.489Z,98.26
2024-01-27T19:08:06.386Z,98.11
2024-01-27T19:10:35.349Z,97.83
2024-01-27T19:13:03.643Z,98.57
2024-01-27T19:15:33.125Z,98.38
2024-01-27T19:18:01.608Z,97.91
2024-01-27T19:20:29.289Z,98.38
2024-01-27T19:22:56.934Z,98.87
2024-01-27T19:25:24.621Z,99.70
2024-01-27T19:27:53.641Z,99.60
2024-01-27T19:30:21.732Z,100.00
2024-01-27T19:32:49.546Z,100.00
2024-01-27T19:35:18.781Z,100.00
2024-01-27T19:37:46.400Z,100.00
2024-01-27T19:40:14.491Z,100.00
2024-01-27T19:42:42.145Z,100.00
2024-01-27T19:45:11.924Z,100.00
2024-01-27T19:47:40.058Z,100.00
2024-01-27T19:50:08.790Z,99.68
2024-01-27T19:52:36.433Z,99.24
2024-01-27T19:55:04.653Z,98.58
2024-01-27T19:57:32.429Z,96.93
2024-01-27T20:00:00.238Z,95.68
2024-01-27T20:02:29.361Z,96.26
2024-01-27T20:04:56.932Z,96.49
2024-01-27T20:07:24.540Z,95.73
2024-01-27T20:09:52.204Z,96.11
2024-01-27T20:12:19.959Z,95.09
2024-01-27T20:14:47.734Z,93.99
2024-01-27T20:17:15.727Z,93.58
2024-01-27T20:19:45.882Z,93.63
2024-01-27T20:22:14.724Z,93.73
2024-01-27T20:24:42.567Z,93.45
2024-01-27T20:27:10.227Z,93.12
2024-01-27T20:29:38.008Z,93.57
2024-01-27T20:32:07.044Z,93.12
2024-01-27T20:34:36.280Z,94.38
2024-01-27T20:37:05.897Z,94.29
2024-01-27T20:39:33.869Z,94.60
2024-01-27T20:42:01.911Z,94.54
2024-01-27T20:44:29.662Z,94.51
2024-01-27T20:46:58.193Z,94.51
2024-01-27T20:49:26.132Z,94.17
2024-01-27T20:51:54.053Z,94.38
2024-01-27T20:54:23.141Z,94.98
2024-01-27T20:56:50.746Z,94.42
2024-01-27T20:59:18.368Z,94.49
2024-01-27T21:01:47.230Z,95.01
2024-01-27T21:04:16.332Z,95.19
2024-01-27T21:06:44.773Z,95.99
2024-01-27T21:09:12.911Z,96.29
2024-01-27T21:11:42.104Z,95.74
2024-01-27T21:14:09.683Z,96.04
2024-01-27T21:16:40.241Z,96.93
2024-01-27T21:19:08.321Z,96.78
2024-01-27T21:21:36.068Z,97.56
2024-01-27T21:24:04.038Z,97.48
2024-01-27T21:26:31.817Z,97.87
2024-01-27T21:29:03.157Z,97.76
2024-01-27T21:31:30.818Z,98.42
2024-01-27T21:33:58.579Z,98.53
2024-01-27T21:36:26.278Z,98.24
2024-01-27T21:38:54.673Z,99.37
2024-01-27T21:41:22.302Z,98.81
2024-01-27T21:43:50.975Z,98.81
2024-01-27T21:46:19.949Z,99.32
2024-01-27T21:48:47.659Z,99.50
2024-01-27T21:51:15.583Z,100.00
2024-01-27T21:53:43.444Z,100.00
2024-01-27T21:56:12.436Z,100.00
2024-01-27T21:58:40.151Z,100.00
2024-01-27T22:01:07.988Z,100.00
2024-01-27T22:03:40.118Z,100.00
2024-01-27T22:06:08.953Z,100.00
2024-01-27T22:08:37.689Z,100.00
2024-01-27T22:11:06.470Z,100.00
2024-01-27T22:13:34.306Z,100.00
2024-01-27T22:16:02.498Z,100.00
2024-01-27T22:18:32.131Z,100.00
2024-01-27T22:21:01.840Z,100.00
2024-01-27T22:23:29.840Z,100.00
2024-01-27T22:25:58.763Z,100.00
2024-01-27T22:28:26.371Z,100.00
2024-01-27T22:30:54.099Z,100.00
2024-01-27T22:33:24.442Z,100.00
2024-01-27T22:35:52.714Z,100.00
2024-01-27T22:38:21.820Z,100.00
2024-01-27T22:40:49.874Z,100.00
2024-01-27T22:43:17.639Z,100.00
2024-01-27T22:45:45.424Z,100.00
2024-01-27T22:48:16.851Z,100.00
2024-01-27T22:50:44.803Z,100.00
2024-01-27T22:53:13.726Z,100.00
2024-01-27T22:55:43.019Z,100.00
2024-01-27T22:58:10.588Z,100.00
2024-01-27T23:00:40.464Z,99.68
2024-01-27T23:03:10.933Z,99.89
2024-01-27T23:05:38.761Z,99.43
2024-01-27T23:08:06.825Z,99.59
2024-01-27T23:10:35.187Z,99.96
2024-01-27T23:13:04.560Z,100.00
2024-01-27T23:15:32.243Z,100.00
2024-01-27T23:18:00.014Z,100.00
2024-01-27T23:20:27.730Z,100.00
2024-01-27T23:22:55.308Z,99.95
2024-01-27T23:25:23.059Z,100.00
2024-01-27T23:27:50.758Z,100.00
2024-01-27T23:30:19.958Z,100.00
2024-01-27T23:32:47.779Z,100.00
2024-01-27T23:35:15.417Z,99.99
2024-01-27T23:37:44.417Z,100.00
2024-01-27T23:40:13.068Z,100.00
2024-01-27T23:42:42.277Z,100.00
2024-01-27T23:45:10.836Z,100.00
2024-01-27T23:47:39.932Z,100.00
2024-01-27T23:50:08.666Z,100.00
2024-01-27T23:52:37.757Z,100.00
2024-01-27T23:55:06.696Z,100.00
2024-01-27T23:57:34.447Z,100.00
